Time;durP1;ratioP1;P1;durP2;ratioP2;P2;SDS_P1;SDS_P2;PMS_P1;PMS_P2;Temp;Humidity;BMP_temperature;BMP_pressure;BME280_temperature;BME280_humidity;BME280_pressure;Samples;Min_cycle;Max_cycle;Signal;HPM_P1;HPM_P2
2021/08/26 04:01:44;;;;;;;17.00;8.63;;;13.60;99.90;;;;;;6137915;23;20215;-70
2021/08/26 04:04:11;;;;;;;18.83;9.82;;;13.60;99.90;;;;;;6163217;23;20728;-71
2021/08/26 04:06:39;;;;;;;21.10;9.20;;;13.60;99.90;;;;;;6153882;23;20194;-71
2021/08/26 04:09:05;;;;;;;28.03;10.10;;;13.60;99.90;;;;;;6154074;23;20419;-71
2021/08/26 04:11:32;;;;;;;22.80;11.40;;;13.60;99.90;;;;;;6153935;23;20992;-71
2021/08/26 04:13:59;;;;;;;27.60;9.13;;;13.70;99.90;;;;;;6153569;23;20423;-71
2021/08/26 04:16:25;;;;;;;23.70;9.40;;;13.70;99.90;;;;;;6153620;23;20426;-72
2021/08/26 04:18:53;;;;;;;20.70;8.17;;;13.70;99.90;;;;;;6154303;23;20446;-71
2021/08/26 04:21:20;;;;;;;25.27;9.93;;;13.80;99.90;;;;;;6153897;23;20948;-71
2021/08/26 04:23:47;;;;;;;23.03;9.27;;;13.80;99.90;;;;;;6154409;23;20445;-70
2021/08/26 04:26:13;;;;;;;28.20;9.53;;;13.80;99.90;;;;;;6154164;23;20427;-71
2021/08/26 04:28:40;;;;;;;22.50;9.37;;;13.80;99.90;;;;;;6153971;23;20419;-72
2021/08/26 04:31:07;;;;;;;34.67;10.60;;;13.90;99.90;;;;;;6153908;23;20501;-70
2021/08/26 04:33:33;;;;;;;22.20;9.13;;;13.90;99.90;;;;;;6154149;23;20430;-71
2021/08/26 04:36:01;;;;;;;24.73;8.57;;;13.90;99.90;;;;;;6153823;23;20477;-70
2021/08/26 04:38:28;;;;;;;23.63;9.23;;;14.00;99.90;;;;;;6153923;23;20443;-71
2021/08/26 04:40:55;;;;;;;18.93;8.87;;;14.00;99.90;;;;;;6153970;23;20457;-72
2021/08/26 04:43:21;;;;;;;19.47;7.80;;;14.00;99.90;;;;;;6153669;23;20430;-70
2021/08/26 04:45:48;;;;;;;22.47;8.87;;;14.00;99.90;;;;;;6154075;23;20423;-70
2021/08/26 04:48:15;;;;;;;21.50;9.23;;;14.00;99.90;;;;;;6153073;23;20419;-72
2021/08/26 04:50:41;;;;;;;23.07;7.97;;;14.00;99.90;;;;;;6153775;23;20454;-71
2021/08/26 04:53:09;;;;;;;22.10;8.70;;;14.00;99.90;;;;;;6153115;23;20477;-71
2021/08/26 04:55:36;;;;;;;22.93;7.83;;;14.10;99.90;;;;;;6153850;23;20708;-72
2021/08/26 04:58:03;;;;;;;17.40;7.70;;;14.10;99.90;;;;;;6151952;23;20964;-72
2021/08/26 05:00:29;;;;;;;21.20;8.77;;;14.10;99.90;;;;;;6153154;23;20451;-72
2021/08/26 05:02:56;;;;;;;15.43;7.30;;;14.10;99.90;;;;;;6152090;23;20876;-72
2021/08/26 05:05:22;;;;;;;15.23;8.80;;;14.10;99.90;;;;;;6153670;23;20453;-71
2021/08/26 05:07:49;;;;;;;24.63;8.27;;;14.20;99.90;;;;;;6152884;23;20437;-72
2021/08/26 05:10:17;;;;;;;19.87;11.00;;;14.20;99.90;;;;;;6153615;23;20963;-72
2021/08/26 05:12:44;;;;;;;30.60;8.20;;;14.20;99.90;;;;;;6161946;23;20425;-72
2021/08/26 05:15:11;;;;;;;21.90;8.70;;;14.20;99.90;;;;;;6153518;23;20553;-70
2021/08/26 05:17:38;;;;;;;19.40;9.40;;;14.20;99.90;;;;;;6152397;23;20423;-71
2021/08/26 05:20:06;;;;;;;22.67;8.63;;;14.20;99.90;;;;;;6153932;23;20426;-71
2021/08/26 05:22:33;;;;;;;26.50;7.87;;;14.20;99.90;;;;;;6162805;23;20429;-72
2021/08/26 05:24:59;;;;;;;21.27;8.00;;;14.20;99.90;;;;;;6154196;23;20422;-72
2021/08/26 05:27:28;;;;;;;13.57;7.30;;;14.30;99.90;;;;;;6153700;23;20422;-72
2021/08/26 05:29:54;;;;;;;19.10;7.23;;;14.30;99.90;;;;;;6153643;23;20419;-71
2021/08/26 05:32:21;;;;;;;22.00;7.40;;;14.30;99.90;;;;;;6152898;23;20443;-70
2021/08/26 05:34:48;;;;;;;18.77;6.90;;;14.30;99.90;;;;;;6153781;23;20426;-72
2021/08/26 05:37:14;;;;;;;17.37;7.03;;;14.40;99.90;;;;;;6153324;23;20428;-70
2021/08/26 05:39:41;;;;;;;16.90;8.00;;;14.40;99.90;;;;;;6153262;23;20453;-70
2021/08/26 05:42:08;;;;;;;15.50;7.30;;;14.50;99.90;;;;;;6153070;23;20505;-70
2021/08/26 05:44:36;;;;;;;25.30;7.93;;;14.40;99.90;;;;;;6152548;23;20423;-70
2021/08/26 05:47:03;;;;;;;18.07;6.43;;;14.50;99.90;;;;;;6153919;23;20429;-71
2021/08/26 05:49:30;;;;;;;17.97;6.90;;;14.50;99.90;;;;;;6154799;23;20469;-71
2021/08/26 05:51:58;;;;;;;13.70;6.83;;;14.60;99.90;;;;;;6154400;23;20450;-72
2021/08/26 05:54:24;;;;;;;15.93;5.90;;;14.60;99.90;;;;;;6153384;23;20935;-70
2021/08/26 05:56:51;;;;;;;19.90;5.83;;;14.60;99.90;;;;;;6153009;23;20422;-70
2021/08/26 05:59:18;;;;;;;24.77;6.27;;;14.70;99.90;;;;;;6152845;23;20740;-71
2021/08/26 06:01:45;;;;;;;17.30;5.47;;;14.70;99.90;;;;;;6152219;23;20932;-70
2021/08/26 06:04:12;;;;;;;17.93;5.90;;;14.80;99.90;;;;;;6152657;23;20908;-70
2021/08/26 06:06:39;;;;;;;10.97;5.43;;;14.90;99.90;;;;;;6152521;23;20504;-70
2021/08/26 06:09:05;;;;;;;12.63;5.73;;;14.90;99.90;;;;;;6154040;23;20422;-71
2021/08/26 06:11:33;;;;;;;14.23;5.40;;;15.00;99.90;;;;;;6154920;23;20813;-71
2021/08/26 06:13:59;;;;;;;14.67;4.87;;;15.10;99.90;;;;;;6154183;23;20481;-71
2021/08/26 06:16:26;;;;;;;14.47;5.00;;;15.20;99.90;;;;;;6154438;23;20427;-71
2021/08/26 06:18:54;;;;;;;16.00;5.30;;;15.20;99.90;;;;;;6154787;23;20968;-71
2021/08/26 06:21:20;;;;;;;10.33;5.23;;;15.20;99.90;;;;;;6154874;23;20442;-71
2021/08/26 06:23:47;;;;;;;9.83;4.93;;;15.30;99.90;;;;;;6155107;23;20488;-71
2021/08/26 06:26:14;;;;;;;11.23;4.13;;;15.30;99.90;;;;;;6154617;23;20956;-71
2021/08/26 06:28:41;;;;;;;8.73;4.30;;;15.30;99.90;;;;;;6154559;23;20418;-71
2021/08/26 06:31:07;;;;;;;16.20;4.60;;;15.30;99.90;;;;;;6154640;23;20501;-70
2021/08/26 06:33:34;;;;;;;9.30;4.03;;;15.30;99.90;;;;;;6154820;23;20422;-70
2021/08/26 06:36:02;;;;;;;8.00;4.30;;;15.30;99.90;;;;;;6154966;23;20422;-70
2021/08/26 06:38:29;;;;;;;8.83;4.30;;;15.40;99.90;;;;;;6154478;23;20442;-70
2021/08/26 06:40:55;;;;;;;11.57;4.30;;;15.40;99.90;;;;;;6154636;23;20912;-70
2021/08/26 06:43:22;;;;;;;16.67;4.87;;;15.50;99.90;;;;;;6154315;23;20904;-70
2021/08/26 06:45:49;;;;;;;7.43;4.70;;;15.50;99.90;;;;;;6154909;23;20480;-70
2021/08/26 06:48:16;;;;;;;8.50;3.93;;;15.60;99.90;;;;;;6153749;23;20418;-70
2021/08/26 06:50:42;;;;;;;10.40;5.17;;;15.60;99.90;;;;;;6154627;23;20453;-72
2021/08/26 06:53:10;;;;;;;16.93;5.33;;;15.60;99.90;;;;;;6154357;23;20745;-70
2021/08/26 06:55:37;;;;;;;7.40;4.13;;;15.60;99.90;;;;;;6154658;23;20422;-70
2021/08/26 06:58:04;;;;;;;10.90;5.27;;;15.50;99.90;;;;;;6153748;23;20430;-71
2021/08/26 07:00:31;;;;;;;11.17;4.27;;;15.50;99.90;;;;;;6154743;23;20481;-72
2021/08/26 07:02:57;;;;;;;10.93;4.17;;;15.50;99.90;;;;;;6153975;23;20848;-71
2021/08/26 07:05:24;;;;;;;12.37;4.40;;;15.50;99.90;;;;;;6154751;23;20422;-70
2021/08/26 07:07:51;;;;;;;12.40;4.57;;;15.50;99.90;;;;;;6154033;23;20535;-70
2021/08/26 07:10:19;;;;;;;12.97;4.90;;;15.50;99.90;;;;;;6154673;23;20909;-72
2021/08/26 07:12:45;;;;;;;9.90;3.97;;;15.50;99.90;;;;;;6154109;23;20429;-72
2021/08/26 07:15:12;;;;;;;12.90;4.77;;;15.50;99.90;;;;;;6154763;23;20430;-70
2021/08/26 07:17:39;;;;;;;11.83;4.20;;;15.60;99.90;;;;;;6154521;23;20446;-70
2021/08/26 07:20:06;;;;;;;15.23;4.73;;;15.60;99.90;;;;;;6154110;23;20446;-70
2021/08/26 07:22:33;;;;;;;9.50;4.40;;;15.60;99.90;;;;;;6154136;23;20423;-70
2021/08/26 07:25:00;;;;;;;8.93;4.00;;;15.60;99.90;;;;;;6154828;23;20427;-71
2021/08/26 07:27:28;;;;;;;10.23;3.63;;;15.70;99.90;;;;;;6154676;23;20419;-70
2021/08/26 07:29:54;;;;;;;7.80;4.20;;;15.70;99.90;;;;;;6154326;23;20493;-73
2021/08/26 07:32:21;;;;;;;11.47;3.60;;;15.80;99.90;;;;;;6163334;23;20446;-71
2021/08/26 07:34:48;;;;;;;8.50;4.50;;;16.00;99.90;;;;;;6154347;23;20438;-71
2021/08/26 07:37:15;;;;;;;10.30;4.00;;;16.10;99.90;;;;;;6154415;23;20422;-71
2021/08/26 07:39:41;;;;;;;8.43;3.70;;;16.20;99.90;;;;;;6154578;23;20449;-72
2021/08/26 07:42:08;;;;;;;9.00;3.93;;;16.30;99.90;;;;;;6153625;23;20442;-71
2021/08/26 07:44:36;;;;;;;14.13;3.93;;;16.50;99.90;;;;;;6154021;23;20477;-72
2021/08/26 07:47:03;;;;;;;11.10;4.07;;;16.60;99.90;;;;;;6153807;23;20423;-73
2021/08/26 07:49:30;;;;;;;8.40;3.50;;;16.60;99.90;;;;;;6164075;23;20427;-71
2021/08/26 07:51:57;;;;;;;7.50;4.10;;;16.70;99.90;;;;;;6154698;23;20450;-70
2021/08/26 07:54:23;;;;;;;10.50;3.67;;;16.80;99.90;;;;;;6154432;23;20485;-70
2021/08/26 07:56:50;;;;;;;6.50;3.40;;;16.70;99.90;;;;;;6153930;23;20427;-72
2021/08/26 07:59:17;;;;;;;4.83;3.63;;;16.70;99.90;;;;;;6153676;23;20501;-72
2021/08/26 08:01:45;;;;;;;12.70;3.90;;;16.70;99.90;;;;;;6153400;23;20481;-71
2021/08/26 08:04:11;;;;;;;5.63;3.07;;;16.70;99.90;;;;;;6154262;23;20423;-71
2021/08/26 08:06:38;;;;;;;5.47;2.90;;;16.80;99.90;;;;;;6153901;23;20423;-72
2021/08/26 08:09:05;;;;;;;9.63;3.07;;;16.90;99.90;;;;;;6154295;23;20418;-72
2021/08/26 08:11:31;;;;;;;5.57;2.90;;;17.00;99.90;;;;;;6154257;23;20451;-71
2021/08/26 08:13:58;;;;;;;6.33;2.67;;;17.10;99.90;;;;;;6153583;23;20728;-71
2021/08/26 08:16:25;;;;;;;6.30;3.13;;;17.20;99.90;;;;;;6153657;23;20428;-71
2021/08/26 08:18:53;;;;;;;4.10;2.63;;;17.30;99.90;;;;;;6154308;23;20446;-71
2021/08/26 08:21:19;;;;;;;6.03;3.77;;;17.40;99.90;;;;;;6154152;23;20447;-71
2021/08/26 08:23:46;;;;;;;5.93;3.30;;;17.30;99.90;;;;;;6153810;23;20492;-71
2021/08/26 08:26:12;;;;;;;3.23;2.73;;;17.30;99.90;;;;;;6153953;23;20422;-71
2021/08/26 08:28:39;;;;;;;7.33;2.10;;;17.40;99.90;;;;;;6153481;23;20430;-70
2021/08/26 08:31:06;;;;;;;6.30;1.80;;;17.60;99.90;;;;;;6153103;23;20530;-71
2021/08/26 08:33:33;;;;;;;3.33;1.90;;;17.80;99.90;;;;;;6153858;23;20471;-71
2021/08/26 08:36:01;;;;;;;5.37;1.60;;;17.90;99.90;;;;;;6153362;23;20443;-70
2021/08/26 08:38:28;;;;;;;4.93;2.00;;;18.10;99.90;;;;;;6154082;23;20477;-71
2021/08/26 08:40:55;;;;;;;1.33;1.23;;;18.10;99.90;;;;;;6154278;23;20493;-71
2021/08/26 08:43:21;;;;;;;3.83;2.10;;;17.90;99.90;;;;;;6153175;23;20755;-70
2021/08/26 08:45:48;;;;;;;7.20;2.00;;;18.00;99.90;;;;;;6153713;23;20483;-70
2021/08/26 08:48:15;;;;;;;4.17;1.90;;;18.00;99.90;;;;;;6153411;23;20422;-71
2021/08/26 08:50:42;;;;;;;4.83;2.60;;;18.10;99.90;;;;;;6153803;23;20438;-70
2021/08/26 08:53:14;;;;;;;3.03;1.70;;;18.10;99.90;;;;;;6153717;23;20427;-71
2021/08/26 08:55:42;;;;;;;4.53;1.73;;;18.00;99.90;;;;;;6153588;23;20880;-71
2021/08/26 08:58:09;;;;;;;2.97;1.40;;;18.00;99.90;;;;;;6153874;23;20450;-71
2021/08/26 09:00:36;;;;;;;4.27;1.87;;;18.10;99.90;;;;;;6153633;23;20505;-71
2021/08/26 09:03:03;;;;;;;3.50;1.83;;;17.90;99.90;;;;;;6153506;23;20897;-72
2021/08/26 09:05:52;;;;;;;1.33;1.10;;;17.90;99.90;;;;;;6153468;23;20422;-71
2021/08/26 09:08:22;;;;;;;3.27;1.27;;;17.90;99.90;;;;;;6153222;23;20462;-71
2021/08/26 09:10:48;;;;;;;3.80;1.77;;;17.90;99.90;;;;;;6153693;23;20522;-71
2021/08/26 09:13:15;;;;;;;2.83;1.60;;;17.80;99.90;;;;;;6152794;23;20445;-71
2021/08/26 09:15:46;;;;;;;1.47;1.30;;;18.00;99.90;;;;;;6153330;23;20972;-72
2021/08/26 09:18:15;;;;;;;1.73;1.40;;;18.20;99.90;;;;;;6153241;23;20407;-72
2021/08/26 09:20:53;;;;;;;3.23;1.70;;;18.40;99.90;;;;;;6153775;23;20450;-71
2021/08/26 09:23:22;;;;;;;4.43;2.50;;;18.30;99.90;;;;;;6153365;23;20429;-70
2021/08/26 09:25:49;;;;;;;4.07;1.73;;;18.10;99.90;;;;;;6153838;23;20423;-70
2021/08/26 09:28:27;;;;;;;1.63;1.23;;;18.00;99.90;;;;;;6153166;23;20423;-73
2021/08/26 09:31:10;;;;;;;2.37;1.00;;;18.00;99.90;;;;;;6153624;23;20458;-72
2021/08/26 09:33:51;;;;;;;4.27;1.00;;;18.00;99.90;;;;;;6154018;23;20497;-70
2021/08/26 09:36:19;;;;;;;2.83;0.97;;;18.10;99.90;;;;;;6153235;23;20450;-71
2021/08/26 09:38:52;;;;;;;1.00;1.00;;;18.30;99.90;;;;;;6153542;23;20422;-71
2021/08/26 09:41:41;;;;;;;2.80;1.57;;;18.50;99.90;;;;;;6153426;23;20443;-71
2021/08/26 09:44:10;;;;;;;2.13;0.83;;;18.60;99.90;;;;;;6153518;23;20892;-70
2021/08/26 09:46:37;;;;;;;2.10;1.13;;;18.50;99.90;;;;;;6155880;23;20889;-70
2021/08/26 09:49:05;;;;;;;2.80;1.43;;;18.40;99.90;;;;;;6157340;23;20426;-70
2021/08/26 09:51:32;;;;;;;1.20;1.10;;;18.40;99.90;;;;;;6155226;23;20438;-71
2021/08/26 09:54:01;;;;;;;3.70;0.90;;;18.50;99.90;;;;;;6155618;23;20794;-72
2021/08/26 09:56:39;;;;;;;3.30;1.50;;;18.60;99.90;;;;;;6156300;23;20418;-71
2021/08/26 09:59:06;;;;;;;2.10;0.90;;;18.60;99.90;;;;;;6155173;23;20733;-72
2021/08/26 10:01:36;;;;;;;2.20;1.13;;;18.50;99.90;;;;;;6154745;23;20816;-73
2021/08/26 10:04:03;;;;;;;2.10;1.33;;;18.50;99.90;;;;;;6154996;23;20510;-73
2021/08/26 10:06:31;;;;;;;2.00;0.73;;;18.50;99.90;;;;;;6155680;23;20423;-72
2021/08/26 10:08:58;;;;;;;1.50;0.63;;;18.50;99.90;;;;;;6156163;23;20500;-72
2021/08/26 10:11:27;;;;;;;1.07;0.70;;;18.50;99.90;;;;;;6155531;23;20809;-71
2021/08/26 10:13:54;;;;;;;0.90;0.90;;;18.60;99.90;;;;;;6154651;23;20674;-71
2021/08/26 10:16:21;;;;;;;1.13;0.70;;;18.50;99.90;;;;;;6155020;23;20541;-72
2021/08/26 10:18:48;;;;;;;0.77;0.77;;;18.50;99.90;;;;;;6155079;23;20430;-72
2021/08/26 10:21:15;;;;;;;1.47;0.70;;;18.50;99.90;;;;;;6154957;23;20814;-72
2021/08/26 10:23:45;;;;;;;1.23;0.70;;;18.50;99.90;;;;;;6155096;23;20422;-71
2021/08/26 10:26:14;;;;;;;1.80;0.70;;;18.60;99.90;;;;;;6155259;23;20427;-72
2021/08/26 10:28:44;;;;;;;0.90;0.80;;;18.70;99.90;;;;;;6154993;23;20481;-72
2021/08/26 10:31:24;;;;;;;0.93;0.87;;;18.80;99.90;;;;;;6155278;23;20438;-73
2021/08/26 10:33:51;;;;;;;2.50;2.30;;;18.90;99.90;;;;;;6155501;23;20745;-72
2021/08/26 10:36:19;;;;;;;1.03;0.70;;;18.70;99.90;;;;;;6154663;23;20497;-71
2021/08/26 10:38:45;;;;;;;3.50;0.80;;;18.50;99.90;;;;;;6154845;23;20469;-72
2021/08/26 10:41:29;;;;;;;2.83;0.90;;;18.30;99.90;;;;;;6154858;23;20458;-72
2021/08/26 10:43:59;;;;;;;1.40;1.10;;;18.20;99.90;;;;;;6154674;23;20431;-72
2021/08/26 10:46:54;;;;;;;5.60;0.97;;;18.10;99.90;;;;;;6154116;23;20967;-71
2021/08/26 10:49:23;;;;;;;2.27;1.10;;;17.90;99.90;;;;;;6154735;23;20896;-72
2021/08/26 10:51:52;;;;;;;2.93;0.77;;;17.90;99.90;;;;;;6154713;23;20952;-72
2021/08/26 10:54:31;;;;;;;1.27;0.97;;;17.80;99.90;;;;;;6155268;23;20426;-71
2021/08/26 10:57:18;;;;;;;2.87;1.10;;;17.60;99.90;;;;;;6156525;23;21129;-72
2021/08/26 10:59:46;;;;;;;2.93;0.70;;;17.40;99.90;;;;;;6154310;23;20450;-72
2021/08/26 11:02:39;;;;;;;0.60;0.53;;;17.20;99.90;;;;;;6153558;23;20470;-72
2021/08/26 11:05:33;;;;;;;1.33;0.87;;;17.30;99.90;;;;;;6154884;23;20407;-71
2021/08/26 11:08:00;;;;;;;4.47;1.17;;;17.30;99.90;;;;;;6154941;23;20403;-71
2021/08/26 11:10:28;;;;;;;3.60;0.90;;;17.30;99.90;;;;;;6154887;23;20438;-71
2021/08/26 11:13:26;;;;;;;2.37;1.13;;;17.20;99.90;;;;;;6154372;23;20418;-71
2021/08/26 11:15:55;;;;;;;2.00;1.23;;;17.20;99.90;;;;;;6154981;23;20445;-71
2021/08/26 11:18:29;;;;;;;1.13;1.13;;;17.20;99.90;;;;;;6154581;23;20446;-71
2021/08/26 11:20:56;;;;;;;2.43;1.03;;;17.40;99.90;;;;;;6154180;23;20485;-71
2021/08/26 11:23:44;;;;;;;1.57;1.47;;;17.50;99.90;;;;;;6154530;23;20445;-71
2021/08/26 11:26:43;;;;;;;0.90;0.90;;;17.70;99.90;;;;;;6155969;23;20441;-72
2021/08/26 11:29:33;;;;;;;1.17;0.73;;;17.80;99.90;;;;;;6153679;23;20869;-72
2021/08/26 11:32:04;;;;;;;4.27;1.27;;;17.80;99.90;;;;;;6153854;23;20514;-71
2021/08/26 11:34:34;;;;;;;3.17;0.90;;;17.80;99.90;;;;;;6154577;23;20415;-71
2021/08/26 11:37:03;;;;;;;1.90;1.03;;;17.70;99.90;;;;;;6155392;23;20411;-71
2021/08/26 11:39:32;;;;;;;3.17;1.10;;;17.70;99.90;;;;;;6155035;23;20418;-70
2021/08/26 11:42:00;;;;;;;1.43;0.80;;;17.70;99.90;;;;;;6155030;23;20446;-74
2021/08/26 11:44:27;;;;;;;1.43;1.10;;;17.70;99.90;;;;;;6154412;23;20422;-71
2021/08/26 11:46:54;;;;;;;2.00;1.30;;;17.70;99.90;;;;;;6154186;23;20422;-71
2021/08/26 11:49:33;;;;;;;2.73;1.07;;;17.70;99.90;;;;;;6155312;23;20763;-71
2021/08/26 11:52:05;;;;;;;2.37;0.80;;;17.80;99.90;;;;;;6154478;23;20442;-71
2021/08/26 11:54:37;;;;;;;1.43;1.30;;;17.80;99.90;;;;;;6154220;23;20715;-70
2021/08/26 11:57:05;;;;;;;2.13;1.20;;;17.90;99.90;;;;;;6154606;23;20411;-73
2021/08/26 11:59:34;;;;;;;3.93;0.90;;;18.00;99.90;;;;;;6153758;23;20457;-71
2021/08/26 12:02:20;;;;;;;1.50;0.57;;;18.20;99.90;;;;;;6153009;23;20963;-71
2021/08/26 12:04:51;;;;;;;0.77;0.60;;;18.30;99.90;;;;;;6154071;23;20429;-71
2021/08/26 12:07:22;;;;;;;0.57;0.53;;;18.40;99.90;;;;;;6153392;23;20407;-72
2021/08/26 12:09:50;;;;;;;3.20;1.03;;;18.60;99.90;;;;;;6153719;23;20430;-71
2021/08/26 12:12:17;;;;;;;0.50;0.50;;;18.70;99.90;;;;;;6153264;23;20498;-72
2021/08/26 12:14:43;;;;;;;1.80;0.40;;;18.80;99.90;;;;;;6153402;23;20427;-71
2021/08/26 12:17:12;;;;;;;0.73;0.60;;;18.90;99.90;;;;;;6153106;23;20498;-72
2021/08/26 12:19:38;;;;;;;1.40;0.40;;;19.00;99.90;;;;;;6153890;23;20423;-72
2021/08/26 12:22:07;;;;;;;0.70;0.70;;;19.00;99.90;;;;;;6153698;23;20443;-71
2021/08/26 12:24:33;;;;;;;0.87;0.60;;;19.10;99.90;;;;;;6154168;23;20423;-71
2021/08/26 12:27:09;;;;;;;0.50;0.50;;;19.20;99.90;;;;;;6153839;23;20430;-72
2021/08/26 12:29:42;;;;;;;0.87;0.30;;;19.10;99.90;;;;;;6152943;23;20935;-72
2021/08/26 12:32:28;;;;;;;1.47;1.47;;;19.00;99.90;;;;;;6152829;23;20515;-71
2021/08/26 12:35:18;;;;;;;0.90;0.57;;;19.00;99.90;;;;;;6153496;23;20441;-71
2021/08/26 12:37:57;;;;;;;0.97;0.40;;;19.00;99.90;;;;;;6153606;23;20429;-71
2021/08/26 12:40:27;;;;;;;1.43;0.80;;;18.90;99.90;;;;;;6163342;23;20435;-71
2021/08/26 12:43:02;;;;;;;3.70;1.30;;;18.90;99.90;;;;;;6152771;23;20948;-71
2021/08/26 12:45:29;;;;;;;6.67;0.77;;;18.90;99.90;;;;;;6153299;23;20402;-72
2021/08/26 12:47:56;;;;;;;1.10;0.90;;;18.80;99.90;;;;;;6152987;23;20429;-72
2021/08/26 12:50:28;;;;;;;2.07;1.90;;;18.70;99.90;;;;;;6153840;23;20419;-72
2021/08/26 12:52:56;;;;;;;2.73;2.57;;;18.60;99.90;;;;;;6152932;23;20427;-72
2021/08/26 12:55:23;;;;;;;1.87;0.90;;;18.70;99.90;;;;;;6153718;23;20779;-71
2021/08/26 12:57:50;;;;;;;1.07;1.00;;;18.70;99.90;;;;;;6152931;23;20497;-71
2021/08/26 13:00:35;;;;;;;0.67;0.67;;;18.70;99.90;;;;;;6153560;23;20447;-72
2021/08/26 13:03:02;;;;;;;0.80;0.80;;;19.00;99.90;;;;;;6152581;23;20407;-71
2021/08/26 13:05:31;;;;;;;1.77;1.00;;;19.20;99.90;;;;;;6153214;23;20427;-71
2021/08/26 13:08:00;;;;;;;2.50;0.60;;;19.20;99.90;;;;;;6153385;23;20473;-72
2021/08/26 13:10:27;;;;;;;2.10;0.70;;;19.20;99.90;;;;;;6153847;23;20934;-71
2021/08/26 13:13:09;;;;;;;4.50;0.97;;;19.10;99.90;;;;;;6152440;23;20418;-72
2021/08/26 13:15:36;;;;;;;2.63;1.93;;;19.00;99.90;;;;;;6153253;23;20759;-72
2021/08/26 13:18:03;;;;;;;0.83;0.60;;;18.80;99.90;;;;;;6152551;23;20419;-72
2021/08/26 13:20:30;;;;;;;1.40;0.57;;;18.60;99.90;;;;;;6152912;23;20450;-71
2021/08/26 13:22:56;;;;;;;1.37;0.60;;;18.50;99.90;;;;;;6153078;23;20496;-71
2021/08/26 13:25:24;;;;;;;2.37;1.03;;;18.50;99.90;;;;;;6153253;23;20423;-71
2021/08/26 13:27:51;;;;;;;3.20;0.47;;;18.40;99.90;;;;;;6152654;23;20433;-71
2021/08/26 13:30:19;;;;;;;2.73;0.90;;;18.30;99.90;;;;;;6152905;23;20426;-70
2021/08/26 13:32:46;;;;;;;2.83;0.63;;;18.20;99.90;;;;;;6152031;23;20426;-71
2021/08/26 13:35:12;;;;;;;0.70;0.50;;;18.20;99.90;;;;;;6152597;23;20443;-71
2021/08/26 13:37:40;;;;;;;1.90;0.60;;;18.10;99.90;;;;;;6152568;23;20419;-71
2021/08/26 13:40:10;;;;;;;1.60;0.50;;;18.10;99.90;;;;;;6152552;23;20423;-71
2021/08/26 13:42:39;;;;;;;0.97;0.60;;;17.90;99.90;;;;;;6151401;23;20885;-71
2021/08/26 13:45:07;;;;;;;1.10;0.40;;;17.90;99.90;;;;;;6152612;23;20913;-71
2021/08/26 13:47:33;;;;;;;2.33;1.10;;;17.80;99.90;;;;;;6152239;23;20798;-71
2021/08/26 13:50:00;;;;;;;1.83;0.70;;;17.70;99.90;;;;;;6152917;23;20434;-71
2021/08/26 13:52:27;;;;;;;3.20;0.60;;;17.60;99.90;;;;;;6152661;23;20439;-73
2021/08/26 13:54:54;;;;;;;1.30;0.80;;;17.50;99.90;;;;;;6153667;23;20450;-70
2021/08/26 13:57:20;;;;;;;1.60;0.67;;;17.40;99.90;;;;;;6153271;23;20429;-70
2021/08/26 13:59:49;;;;;;;1.10;0.53;;;17.40;99.90;;;;;;6161838;23;20426;-71
2021/08/26 14:02:15;;;;;;;1.60;1.43;;;17.40;99.90;;;;;;6151485;23;20454;-71
2021/08/26 14:04:42;;;;;;;2.70;2.50;;;17.50;99.90;;;;;;6152999;23;20426;-71
2021/08/26 14:07:09;;;;;;;5.23;1.13;;;17.50;99.90;;;;;;6152441;23;20422;-71
2021/08/26 14:09:36;;;;;;;2.80;2.60;;;17.50;99.90;;;;;;6162305;23;20755;-71
2021/08/26 14:12:03;;;;;;;2.30;0.93;;;17.50;99.90;;;;;;6152393;23;20906;-74
2021/08/26 14:14:30;;;;;;;0.77;0.77;;;17.40;99.90;;;;;;6152164;23;20758;-70
2021/08/26 14:16:58;;;;;;;1.60;1.60;;;17.40;99.90;;;;;;6151755;23;20427;-71
2021/08/26 14:19:25;;;;;;;0.93;0.77;;;17.30;99.90;;;;;;6152440;23;20423;-70
2021/08/26 14:21:51;;;;;;;4.17;2.40;;;17.30;99.90;;;;;;6152308;23;20591;-70
2021/08/26 14:24:19;;;;;;;2.30;1.60;;;17.20;99.90;;;;;;6152238;23;20780;-69
2021/08/26 14:26:45;;;;;;;2.37;2.07;;;17.30;99.90;;;;;;6162526;23;20505;-69
2021/08/26 14:29:12;;;;;;;3.90;1.20;;;17.30;99.90;;;;;;6152055;23;20422;-70
2021/08/26 14:31:39;;;;;;;7.27;3.87;;;17.20;99.90;;;;;;6153867;23;20442;-70
2021/08/26 14:34:07;;;;;;;3.53;2.00;;;17.30;99.90;;;;;;6154444;23;20422;-70
2021/08/26 14:36:34;;;;;;;3.30;3.00;;;17.40;99.90;;;;;;6154538;23;20456;-71
2021/08/26 14:39:01;;;;;;;8.87;7.50;;;17.40;99.90;;;;;;6154457;23;20477;-71
2021/08/26 14:41:27;;;;;;;12.13;7.60;;;17.40;99.90;;;;;;6154234;23;20476;-71
2021/08/26 14:43:54;;;;;;;6.30;4.47;;;17.40;99.90;;;;;;6153765;23;20422;-70
2021/08/26 14:46:21;;;;;;;6.63;4.60;;;17.30;99.90;;;;;;6153894;23;20897;-71
2021/08/26 14:48:47;;;;;;;2.90;2.70;;;17.30;99.90;;;;;;6163905;23;20432;-71
2021/08/26 14:51:15;;;;;;;2.40;2.30;;;17.30;99.90;;;;;;6154161;23;20438;-72
2021/08/26 14:53:42;;;;;;;3.60;2.30;;;17.30;99.90;;;;;;6153729;23;20898;-70
2021/08/26 14:56:09;;;;;;;1.10;1.00;;;17.40;99.90;;;;;;6153779;23;20509;-69
2021/08/26 14:58:35;;;;;;;1.47;1.00;;;17.40;99.90;;;;;;6153614;23;20749;-71
2021/08/26 15:01:02;;;;;;;0.83;0.80;;;17.40;99.90;;;;;;6153248;23;21035;-72
2021/08/26 15:03:28;;;;;;;1.30;1.30;;;17.40;99.90;;;;;;6153972;23;20449;-72
2021/08/26 15:05:55;;;;;;;2.53;1.00;;;17.40;99.90;;;;;;6154312;23;20746;-72
2021/08/26 15:08:23;;;;;;;2.27;1.50;;;17.40;99.90;;;;;;6154060;23;20764;-71
2021/08/26 15:10:50;;;;;;;1.47;1.30;;;17.30;99.90;;;;;;6154123;23;20473;-71
2021/08/26 15:13:16;;;;;;;1.37;1.07;;;17.30;99.90;;;;;;6153128;23;20430;-71
2021/08/26 15:15:45;;;;;;;1.80;0.80;;;17.40;99.90;;;;;;6154144;23;20430;-72
2021/08/26 15:18:12;;;;;;;1.90;0.83;;;17.30;99.90;;;;;;6153430;23;20422;-72
2021/08/26 15:20:39;;;;;;;2.07;0.40;;;17.30;99.90;;;;;;6154354;23;20447;-71
2021/08/26 15:23:05;;;;;;;0.47;0.47;;;17.30;99.90;;;;;;6153566;23;20422;-72
2021/08/26 15:25:33;;;;;;;0.80;0.80;;;17.20;99.90;;;;;;6154467;23;20423;-70
2021/08/26 15:28:00;;;;;;;4.43;1.30;;;17.10;99.90;;;;;;6153359;23;20477;-71
2021/08/26 15:30:27;;;;;;;3.70;0.80;;;17.00;99.90;;;;;;6154547;23;20728;-71
2021/08/26 15:32:53;;;;;;;1.33;1.10;;;17.00;99.90;;;;;;6153594;23;20427;-72
2021/08/26 15:35:20;;;;;;;2.60;0.50;;;17.00;99.90;;;;;;6159368;23;20457;-72
2021/08/26 15:37:47;;;;;;;1.17;0.63;;;16.90;99.90;;;;;;6154535;23;20436;-71
2021/08/26 15:40:14;;;;;;;0.80;0.80;;;16.80;99.90;;;;;;6154140;23;20805;-71
2021/08/26 15:42:42;;;;;;;0.50;0.50;;;16.80;99.90;;;;;;6152690;23;20447;-71
2021/08/26 15:45:10;;;;;;;2.10;0.80;;;16.70;99.90;;;;;;6154090;23;20433;-71
2021/08/26 15:47:37;;;;;;;2.27;1.43;;;16.70;99.90;;;;;;6153535;23;20422;-71
2021/08/26 15:50:06;;;;;;;0.77;0.77;;;16.60;99.90;;;;;;6153857;23;20422;-70
2021/08/26 15:52:34;;;;;;;1.20;0.80;;;16.60;99.90;;;;;;6153622;23;20419;-71
2021/08/26 15:55:06;;;;;;;3.43;0.80;;;16.50;99.90;;;;;;6154141;23;20429;-70
2021/08/26 15:57:58;;;;;;;0.73;0.70;;;16.50;99.90;;;;;;6153564;23;20407;-72
2021/08/26 16:00:40;;;;;;;1.30;1.20;;;16.50;99.90;;;;;;6153982;23;20495;-71
2021/08/26 16:03:09;;;;;;;0.70;0.70;;;16.40;99.90;;;;;;6152840;23;20439;-71
2021/08/26 16:05:36;;;;;;;0.67;0.60;;;16.40;99.90;;;;;;6153970;23;20430;-71
2021/08/26 16:08:03;;;;;;;0.83;0.80;;;16.30;99.90;;;;;;6153935;23;20437;-71
2021/08/26 16:10:30;;;;;;;2.00;0.80;;;16.30;99.90;;;;;;6153735;23;20453;-70
2021/08/26 16:12:56;;;;;;;0.80;0.80;;;16.30;99.90;;;;;;6152895;23;20439;-71
2021/08/26 16:15:23;;;;;;;2.00;1.17;;;16.30;99.90;;;;;;6153889;23;20426;-71
2021/08/26 16:17:51;;;;;;;2.17;1.53;;;16.30;99.90;;;;;;6152805;23;20431;-72
2021/08/26 16:20:18;;;;;;;1.30;1.27;;;16.40;99.90;;;;;;6153294;23;20477;-70
2021/08/26 16:22:46;;;;;;;1.37;1.03;;;16.40;99.90;;;;;;6153325;23;20446;-71
2021/08/26 16:25:13;;;;;;;3.30;1.00;;;16.40;99.90;;;;;;6153871;23;20434;-71
2021/08/26 16:27:40;;;;;;;3.80;1.20;;;16.40;99.90;;;;;;6153124;23;20489;-73
2021/08/26 16:30:08;;;;;;;2.37;1.10;;;16.40;99.90;;;;;;6153534;23;20465;-71
2021/08/26 16:32:35;;;;;;;2.77;0.90;;;16.40;99.90;;;;;;6153105;23;20423;-71
2021/08/26 16:35:04;;;;;;;1.27;1.17;;;16.40;99.90;;;;;;6153623;23;20904;-70
2021/08/26 16:37:31;;;;;;;1.37;0.70;;;16.40;99.90;;;;;;6153211;23;20426;-71
2021/08/26 16:39:59;;;;;;;3.47;0.90;;;16.40;99.90;;;;;;6154581;23;20429;-72
2021/08/26 16:42:25;;;;;;;0.87;0.80;;;16.40;99.90;;;;;;6155404;23;20447;-71
2021/08/26 16:44:52;;;;;;;2.83;0.83;;;16.50;99.90;;;;;;6153369;23;20522;-70
2021/08/26 16:47:19;;;;;;;2.20;1.43;;;16.50;99.90;;;;;;6153075;23;20422;-71
2021/08/26 16:49:46;;;;;;;3.57;1.10;;;16.50;99.90;;;;;;6153633;23;20423;-72
2021/08/26 16:52:14;;;;;;;3.50;0.90;;;16.40;99.90;;;;;;6152921;23;20443;-72